Time;durP1;ratioP1;P1;durP2;ratioP2;P2;SDS_P1;SDS_P2;PMS_P1;PMS_P2;Temp;Humidity;BMP_temperature;BMP_pressure;BME280_temperature;BME280_humidity;BME280_pressure;Samples;Min_cycle;Max_cycle;Signal;HPM_P1;HPM_P2
2022/07/08 00:00:19;;;;;;;4.10;1.60;;;;;;;;;;5074105;28;20746;-84
2022/07/08 00:02:47;;;;;;;5.00;1.70;;;;;;;;;;5074761;28;20209;-84
2022/07/08 00:05:14;;;;;;;5.10;1.83;;;;;;;;;;5073902;28;20233;-84
2022/07/08 00:07:42;;;;;;;4.57;1.60;;;;;;;;;;5074834;28;20221;-84
2022/07/08 00:10:09;;;;;;;2.57;1.60;;;;;;;;;;5074872;28;20873;-85
2022/07/08 00:12:36;;;;;;;2.03;1.27;;;;;;;;;;5074416;28;20236;-85
2022/07/08 00:15:04;;;;;;;3.00;2.00;;;;;;;;;;5073444;28;20237;-84
2022/07/08 00:17:32;;;;;;;1.83;1.33;;;;;;;;;;5073824;28;20717;-84
2022/07/08 00:19:59;;;;;;;2.93;1.83;;;;;;;;;;5073557;28;20286;-83
2022/07/08 00:22:26;;;;;;;4.30;1.97;;;;;;;;;;5074529;28;20205;-82
2022/07/08 00:24:55;;;;;;;2.20;1.50;;;;;;;;;;5072507;28;20324;-84
2022/07/08 00:27:22;;;;;;;4.10;1.53;;;;;;;;;;5073832;28;20225;-84
2022/07/08 00:29:49;;;;;;;2.67;1.63;;;;;;;;;;5073548;28;20233;-84
2022/07/08 00:32:16;;;;;;;4.67;1.30;;;;;;;;;;5073987;28;20213;-84
2022/07/08 00:34:43;;;;;;;3.30;1.70;;;;;;;;;;5073166;28;20612;-83
2022/07/08 00:37:11;;;;;;;2.00;1.47;;;;;;;;;;5073978;28;20233;-84
2022/07/08 00:39:38;;;;;;;3.30;1.57;;;;;;;;;;5073629;28;20248;-84
2022/07/08 00:42:07;;;;;;;2.57;1.70;;;;;;;;;;5073965;28;20217;-85
2022/07/08 00:44:34;;;;;;;3.60;1.70;;;;;;;;;;5073488;28;20229;-85
2022/07/08 00:47:01;;;;;;;2.97;1.73;;;;;;;;;;5073872;28;20236;-84
2022/07/08 00:49:28;;;;;;;2.57;1.40;;;;;;;;;;5073577;28;20233;-83
2022/07/08 00:51:56;;;;;;;2.50;1.60;;;;;;;;;;5077354;28;20240;-84
2022/07/08 00:54:24;;;;;;;5.87;1.67;;;;;;;;;;5097842;28;20235;-84
2022/07/08 00:56:51;;;;;;;1.93;1.40;;;;;;;;;;5098696;28;20217;-83
2022/07/08 00:59:20;;;;;;;3.07;1.60;;;;;;;;;;5097444;28;20227;-82
2022/07/08 01:01:47;;;;;;;2.10;1.40;;;;;;;;;;5055627;28;20226;-83
2022/07/08 01:04:14;;;;;;;3.27;1.70;;;;;;;;;;5056514;28;20232;-84
2022/07/08 01:06:42;;;;;;;3.70;1.80;;;;;;;;;;5049468;28;20206;-83
2022/07/08 01:09:09;;;;;;;2.23;1.80;;;;;;;;;;5067714;28;20260;-84
2022/07/08 01:11:36;;;;;;;3.73;1.80;;;;;;;;;;5069168;28;20222;-84
2022/07/08 01:14:05;;;;;;;2.37;1.67;;;;;;;;;;5052550;28;20230;-85
2022/07/08 01:16:34;;;;;;;4.87;2.07;;;;;;;;;;5053380;28;20229;-85
2022/07/08 01:19:01;;;;;;;6.73;1.87;;;;;;;;;;5058613;28;20237;-84
2022/07/08 01:21:29;;;;;;;2.63;1.40;;;;;;;;;;5078047;28;20209;-85
2022/07/08 01:23:56;;;;;;;2.93;1.57;;;;;;;;;;5082752;28;20205;-83
2022/07/08 01:26:23;;;;;;;5.73;1.83;;;;;;;;;;5097642;28;20200;-84
2022/07/08 01:28:50;;;;;;;2.60;1.93;;;;;;;;;;5097232;28;20239;-84
2022/07/08 01:31:17;;;;;;;4.97;2.00;;;;;;;;;;5098105;28;20192;-83
2022/07/08 01:33:44;;;;;;;4.53;1.73;;;;;;;;;;5096698;28;20225;-84
2022/07/08 01:36:11;;;;;;;4.50;1.60;;;;;;;;;;5097645;28;20221;-84
2022/07/08 01:38:40;;;;;;;4.07;1.70;;;;;;;;;;5096980;28;20243;-84
2022/07/08 01:41:07;;;;;;;4.13;1.87;;;;;;;;;;5083335;28;20669;-84
2022/07/08 01:43:34;;;;;;;3.33;1.40;;;;;;;;;;5072287;28;20233;-84
2022/07/08 01:46:01;;;;;;;1.60;1.50;;;;;;;;;;5073115;28;20198;-84
2022/07/08 01:48:28;;;;;;;4.40;1.70;;;;;;;;;;5072355;28;20244;-84
2022/07/08 01:50:55;;;;;;;5.93;2.33;;;;;;;;;;5072588;28;20250;-84
2022/07/08 01:53:22;;;;;;;8.50;1.50;;;;;;;;;;5071649;28;20955;-84
2022/07/08 01:55:50;;;;;;;3.63;1.70;;;;;;;;;;5072409;28;20229;-84
2022/07/08 01:58:18;;;;;;;1.87;1.17;;;;;;;;;;5071713;28;20233;-84
2022/07/08 02:00:45;;;;;;;3.47;1.37;;;;;;;;;;5061369;28;20292;-83
2022/07/08 02:03:12;;;;;;;1.97;1.70;;;;;;;;;;5051430;28;20336;-84
2022/07/08 02:05:39;;;;;;;7.43;1.73;;;;;;;;;;5052028;28;20237;-84
2022/07/08 02:08:06;;;;;;;4.03;1.60;;;;;;;;;;5051206;28;20248;-84
2022/07/08 02:12:18;;;;;;;6.77;1.63;;;;;;;;;;5051802;28;20210;-85
2022/07/08 02:13:21;;;;;;;4.57;1.80;;;;;;;;;;5051267;28;20907;-83
2022/07/08 02:15:48;;;;;;;4.67;2.53;;;;;;;;;;5051942;28;20234;-84
2022/07/08 02:18:16;;;;;;;3.43;1.37;;;;;;;;;;5051206;28;20264;-84
2022/07/08 02:20:43;;;;;;;4.30;1.63;;;;;;;;;;5051949;28;20206;-84
2022/07/08 02:23:10;;;;;;;2.33;1.87;;;;;;;;;;5051009;28;20312;-84
2022/07/08 02:25:37;;;;;;;2.43;1.57;;;;;;;;;;5051759;28;20210;-84
2022/07/08 02:28:04;;;;;;;3.73;1.77;;;;;;;;;;5051022;28;20569;-84
2022/07/08 02:30:32;;;;;;;2.87;1.77;;;;;;;;;;5052080;28;20209;-84
2022/07/08 02:32:59;;;;;;;2.50;1.37;;;;;;;;;;5051002;28;20217;-84
2022/07/08 02:35:26;;;;;;;1.50;1.40;;;;;;;;;;5051529;28;20217;-84
2022/07/08 02:37:53;;;;;;;3.77;1.50;;;;;;;;;;5051517;28;20253;-83
2022/07/08 02:40:20;;;;;;;3.80;1.57;;;;;;;;;;5051512;28;20226;-83
2022/07/08 02:42:47;;;;;;;5.40;1.80;;;;;;;;;;5051958;28;20568;-84
2022/07/08 02:45:14;;;;;;;2.10;1.53;;;;;;;;;;5050808;28;20263;-84
2022/07/08 02:47:43;;;;;;;2.70;1.60;;;;;;;;;;5051436;28;20226;-84
2022/07/08 02:50:10;;;;;;;4.67;1.50;;;;;;;;;;5051292;28;20304;-83
2022/07/08 02:52:37;;;;;;;3.37;1.73;;;;;;;;;;5051770;28;20205;-85
2022/07/08 02:55:05;;;;;;;3.43;1.73;;;;;;;;;;5050859;28;20260;-84
2022/07/08 02:57:32;;;;;;;2.73;1.50;;;;;;;;;;5051391;28;20230;-84
2022/07/08 02:59:59;;;;;;;3.10;1.67;;;;;;;;;;5050978;28;20245;-85
2022/07/08 03:02:26;;;;;;;3.50;1.83;;;;;;;;;;5051498;28;20201;-84
2022/07/08 03:04:55;;;;;;;2.77;1.57;;;;;;;;;;5050789;28;20249;-84
2022/07/08 03:07:22;;;;;;;6.20;1.87;;;;;;;;;;5051478;28;20233;-85
2022/07/08 03:09:49;;;;;;;3.47;1.40;;;;;;;;;;5051131;28;20772;-85
2022/07/08 03:12:16;;;;;;;3.27;1.63;;;;;;;;;;5051304;28;20580;-84
2022/07/08 03:14:43;;;;;;;1.50;1.40;;;;;;;;;;5050505;28;20718;-84
2022/07/08 03:17:10;;;;;;;5.07;1.90;;;;;;;;;;5078550;22;20234;-82
2022/07/08 03:19:37;;;;;;;3.07;2.07;;;;;;;;;;5088982;28;20233;-83
2022/07/08 03:22:06;;;;;;;4.10;1.70;;;;;;;;;;5068020;28;20206;-82
2022/07/08 03:24:33;;;;;;;2.50;1.40;;;;;;;;;;5069432;28;20234;-81
2022/07/08 03:27:00;;;;;;;4.47;1.60;;;;;;;;;;5071235;28;20216;-81
2022/07/08 03:29:27;;;;;;;4.53;1.90;;;;;;;;;;5051294;28;20259;-82
2022/07/08 03:31:54;;;;;;;3.80;1.77;;;;;;;;;;5052441;28;20217;-82
2022/07/08 03:34:21;;;;;;;11.53;1.97;;;;;;;;;;5051333;28;20246;-80
2022/07/08 03:36:48;;;;;;;3.53;1.63;;;;;;;;;;5051285;28;20226;-81
2022/07/08 03:39:17;;;;;;;4.10;1.73;;;;;;;;;;5051288;28;20247;-82
2022/07/08 03:41:43;;;;;;;3.90;1.67;;;;;;;;;;5051704;28;20206;-82
2022/07/08 03:44:10;;;;;;;2.57;1.47;;;;;;;;;;5052166;28;20234;-82
2022/07/08 03:46:37;;;;;;;1.90;1.50;;;;;;;;;;5052216;28;20210;-81
2022/07/08 03:49:04;;;;;;;3.63;1.90;;;;;;;;;;5051693;28;20706;-81
2022/07/08 03:51:31;;;;;;;2.67;1.40;;;;;;;;;;5051576;28;20215;-82
2022/07/08 03:53:59;;;;;;;4.20;1.50;;;;;;;;;;5052033;28;20235;-82
2022/07/08 03:56:27;;;;;;;4.13;1.70;;;;;;;;;;5051864;28;20257;-82
2022/07/08 03:58:54;;;;;;;4.63;1.57;;;;;;;;;;5051342;28;20241;-82
2022/07/08 04:01:21;;;;;;;4.43;1.70;;;;;;;;;;5068611;28;20209;-83
2022/07/08 04:03:48;;;;;;;4.13;2.13;;;;;;;;;;5071909;28;20230;-82
2022/07/08 04:06:15;;;;;;;3.23;1.53;;;;;;;;;;5072519;28;20265;-82
2022/07/08 04:08:43;;;;;;;1.57;1.40;;;;;;;;;;5072284;28;20228;-82
2022/07/08 04:11:10;;;;;;;1.40;1.30;;;;;;;;;;5072481;28;20289;-82
2022/07/08 04:13:39;;;;;;;3.03;1.50;;;;;;;;;;5071538;28;20230;-81
2022/07/08 04:16:10;;;;;;;3.17;1.87;;;;;;;;;;5072019;28;20226;-81
2022/07/08 04:18:38;;;;;;;3.57;1.50;;;;;;;;;;5071745;28;20237;-81
2022/07/08 04:21:05;;;;;;;1.50;1.13;;;;;;;;;;5071714;28;20209;-81
2022/07/08 04:23:33;;;;;;;6.83;1.90;;;;;;;;;;5071917;28;20669;-81
2022/07/08 04:26:00;;;;;;;3.03;1.90;;;;;;;;;;5072488;28;20210;-81
2022/07/08 04:28:27;;;;;;;2.80;1.90;;;;;;;;;;5068787;28;20230;-80
2022/07/08 04:30:57;;;;;;;1.93;1.47;;;;;;;;;;5071182;28;20202;-81
2022/07/08 04:33:24;;;;;;;1.87;1.60;;;;;;;;;;5070246;28;20245;-81
2022/07/08 04:35:51;;;;;;;3.50;1.50;;;;;;;;;;5072229;28;20209;-81
2022/07/08 04:38:18;;;;;;;2.37;1.50;;;;;;;;;;5071800;28;20301;-81
2022/07/08 04:40:45;;;;;;;2.27;1.67;;;;;;;;;;5073128;28;20198;-82
2022/07/08 04:43:12;;;;;;;4.30;1.67;;;;;;;;;;5071467;28;20210;-81
2022/07/08 04:45:39;;;;;;;5.33;1.80;;;;;;;;;;5070379;28;20228;-81
2022/07/08 04:48:08;;;;;;;2.80;1.63;;;;;;;;;;5065324;28;20226;-81
2022/07/08 04:50:35;;;;;;;2.97;1.50;;;;;;;;;;5063061;28;20199;-80
2022/07/08 04:53:02;;;;;;;3.87;1.77;;;;;;;;;;5062462;28;20198;-81
2022/07/08 04:55:29;;;;;;;3.27;1.77;;;;;;;;;;5062595;28;20197;-80
2022/07/08 04:57:57;;;;;;;2.53;1.60;;;;;;;;;;5061456;28;20230;-81
2022/07/08 05:00:24;;;;;;;4.87;2.10;;;;;;;;;;5062097;28;20216;-81
2022/07/08 05:02:51;;;;;;;2.30;1.43;;;;;;;;;;5062132;28;20202;-80
2022/07/08 05:05:21;;;;;;;2.87;1.90;;;;;;;;;;5061506;28;20232;-81
2022/07/08 05:07:48;;;;;;;2.87;1.73;;;;;;;;;;5062393;28;20780;-81
2022/07/08 05:10:16;;;;;;;6.80;2.00;;;;;;;;;;5059111;28;20709;-79
2022/07/08 05:12:43;;;;;;;4.43;1.53;;;;;;;;;;5057215;28;20233;-80
2022/07/08 05:15:11;;;;;;;3.83;1.63;;;;;;;;;;5056154;28;20245;-80
2022/07/08 05:17:38;;;;;;;3.90;1.83;;;;;;;;;;5057303;28;20312;-80
2022/07/08 05:20:06;;;;;;;4.47;1.87;;;;;;;;;;5056553;28;20257;-80
2022/07/08 05:22:34;;;;;;;3.60;1.77;;;;;;;;;;5057674;28;20220;-80
2022/07/08 05:25:01;;;;;;;4.90;1.80;;;;;;;;;;5056160;28;20230;-80
2022/07/08 05:27:28;;;;;;;4.43;1.90;;;;;;;;;;5057434;28;20233;-80
2022/07/08 05:29:55;;;;;;;6.60;1.73;;;;;;;;;;5056366;28;20234;-80
2022/07/08 05:32:22;;;;;;;4.10;1.70;;;;;;;;;;5057133;28;20256;-79
2022/07/08 05:34:49;;;;;;;5.27;1.70;;;;;;;;;;5056351;28;20242;-80
2022/07/08 05:37:16;;;;;;;3.53;1.73;;;;;;;;;;5056116;28;20237;-79
2022/07/08 05:39:45;;;;;;;2.50;2.30;;;;;;;;;;5056020;28;20241;-80
2022/07/08 05:42:12;;;;;;;7.13;1.50;;;;;;;;;;5056343;28;20233;-80
2022/07/08 05:44:40;;;;;;;3.83;1.77;;;;;;;;;;5056273;28;20230;-81
2022/07/08 05:47:08;;;;;;;4.00;1.70;;;;;;;;;;5057037;28;20282;-80
2022/07/08 05:49:35;;;;;;;4.70;1.67;;;;;;;;;;5056620;28;20238;-80
2022/07/08 05:52:02;;;;;;;2.57;1.50;;;;;;;;;;5056629;28;20202;-80
2022/07/08 05:54:29;;;;;;;4.97;1.70;;;;;;;;;;5055570;28;20620;-80
2022/07/08 05:56:58;;;;;;;3.97;1.63;;;;;;;;;;5055205;28;20221;-80
2022/07/08 05:59:25;;;;;;;3.33;1.53;;;;;;;;;;5054204;28;20249;-79
2022/07/08 06:01:52;;;;;;;4.97;1.83;;;;;;;;;;5035019;28;20207;-80
2022/07/08 06:04:19;;;;;;;2.30;1.77;;;;;;;;;;5034197;28;20333;-79
2022/07/08 06:06:46;;;;;;;7.37;2.57;;;;;;;;;;5034559;28;20203;-80
2022/07/08 06:09:13;;;;;;;5.07;1.50;;;;;;;;;;5034313;28;20242;-80
2022/07/08 06:11:40;;;;;;;3.30;1.27;;;;;;;;;;5035507;28;20194;-80
2022/07/08 06:14:09;;;;;;;5.07;1.70;;;;;;;;;;5034167;28;20730;-79
2022/07/08 06:16:36;;;;;;;3.83;1.40;;;;;;;;;;5034234;28;20202;-81
2022/07/08 06:19:03;;;;;;;5.93;1.73;;;;;;;;;;5033956;28;20245;-79
2022/07/08 06:21:30;;;;;;;2.10;1.50;;;;;;;;;;5034160;28;20645;-80
2022/07/08 06:23:57;;;;;;;3.53;1.57;;;;;;;;;;5033842;28;20230;-79
2022/07/08 06:26:24;;;;;;;3.50;1.57;;;;;;;;;;5034881;28;20209;-80
2022/07/08 06:28:51;;;;;;;2.30;1.50;;;;;;;;;;5034098;28;20337;-80
2022/07/08 06:31:20;;;;;;;5.10;1.33;;;;;;;;;;5034073;28;20202;-79
2022/07/08 06:33:47;;;;;;;6.10;1.80;;;;;;;;;;5034116;28;20238;-80
2022/07/08 06:36:14;;;;;;;3.53;1.47;;;;;;;;;;5034552;28;20210;-80
2022/07/08 06:38:41;;;;;;;4.10;1.87;;;;;;;;;;5034543;28;20253;-80
2022/07/08 06:41:08;;;;;;;6.80;1.67;;;;;;;;;;5034624;28;20211;-79
2022/07/08 06:43:35;;;;;;;2.77;1.30;;;;;;;;;;5034113;28;20231;-80
2022/07/08 06:46:02;;;;;;;3.00;1.50;;;;;;;;;;5035766;28;20210;-80
2022/07/08 06:48:30;;;;;;;2.07;1.57;;;;;;;;;;5035291;28;20690;-81
2022/07/08 06:50:57;;;;;;;4.97;1.60;;;;;;;;;;5035622;28;20206;-80
2022/07/08 06:53:25;;;;;;;4.20;1.70;;;;;;;;;;5034834;28;20235;-80
2022/07/08 06:55:52;;;;;;;5.47;1.60;;;;;;;;;;5036219;28;20268;-80
2022/07/08 06:58:20;;;;;;;1.40;1.30;;;;;;;;;;5038431;28;20234;-80
2022/07/08 07:00:47;;;;;;;2.13;1.17;;;;;;;;;;5039343;28;20694;-80
2022/07/08 07:03:14;;;;;;;3.30;1.40;;;;;;;;;;5038992;28;20246;-80
2022/07/08 07:05:42;;;;;;;4.60;1.57;;;;;;;;;;5050775;28;20194;-81
2022/07/08 07:08:09;;;;;;;3.97;1.57;;;;;;;;;;5036942;28;20236;-80
2022/07/08 07:10:37;;;;;;;3.13;1.43;;;;;;;;;;5037094;28;20207;-81
2022/07/08 07:13:04;;;;;;;4.90;1.67;;;;;;;;;;5036400;28;20238;-81
2022/07/08 07:15:31;;;;;;;6.57;1.40;;;;;;;;;;5036671;28;20206;-80
2022/07/08 07:17:58;;;;;;;2.77;1.60;;;;;;;;;;5036021;28;20231;-81
2022/07/08 07:20:25;;;;;;;5.90;1.93;;;;;;;;;;5037115;28;20679;-80
2022/07/08 07:22:54;;;;;;;4.00;1.30;;;;;;;;;;5037500;28;20207;-80
2022/07/08 07:25:21;;;;;;;3.73;1.40;;;;;;;;;;5038637;28;20237;-80
2022/07/08 07:27:48;;;;;;;2.30;1.30;;;;;;;;;;5039518;28;20226;-80
2022/07/08 07:30:15;;;;;;;1.93;1.00;;;;;;;;;;5038829;28;20238;-80
2022/07/08 07:32:42;;;;;;;2.43;1.17;;;;;;;;;;5039186;28;20207;-81
2022/07/08 07:35:09;;;;;;;4.17;1.40;;;;;;;;;;5038149;28;20584;-80
2022/07/08 07:37:37;;;;;;;2.67;1.23;;;;;;;;;;5038693;28;20234;-80
2022/07/08 07:40:07;;;;;;;3.13;1.33;;;;;;;;;;5037877;28;20261;-81
2022/07/08 07:42:34;;;;;;;5.00;1.57;;;;;;;;;;5038540;28;20234;-80
2022/07/08 07:45:03;;;;;;;4.70;1.30;;;;;;;;;;5037097;28;20322;-80
2022/07/08 07:47:30;;;;;;;6.00;1.37;;;;;;;;;;5038259;28;20325;-80
2022/07/08 07:49:57;;;;;;;2.67;1.23;;;;;;;;;;5037771;28;20238;-80
2022/07/08 07:52:24;;;;;;;2.87;1.20;;;;;;;;;;5039754;28;20218;-80
2022/07/08 07:54:51;;;;;;;3.00;1.17;;;;;;;;;;5038344;28;20239;-80
2022/07/08 07:57:20;;;;;;;2.87;1.57;;;;;;;;;;5039126;28;20238;-80
2022/07/08 07:59:47;;;;;;;3.37;1.10;;;;;;;;;;5038583;28;20317;-80
2022/07/08 08:02:14;;;;;;;3.40;1.30;;;;;;;;;;5039603;28;20214;-80
2022/07/08 08:04:44;;;;;;;1.55;1.27;;;;;;;;;;5037831;28;20237;-81
2022/07/08 08:07:11;;;;;;;1.67;0.97;;;;;;;;;;5037965;28;20997;-80
2022/07/08 08:09:38;;;;;;;2.97;1.30;;;;;;;;;;5037004;28;20248;-80
2022/07/08 08:12:05;;;;;;;3.53;1.00;;;;;;;;;;5038320;28;20210;-80
2022/07/08 08:14:34;;;;;;;2.47;1.05;;;;;;;;;;5038249;28;20238;-80
2022/07/08 08:17:01;;;;;;;2.28;1.00;;;;;;;;;;5037864;28;20222;-80
2022/07/08 08:19:28;;;;;;;1.65;1.02;;;;;;;;;;5038537;28;20257;-80
2022/07/08 08:21:55;;;;;;;4.53;1.20;;;;;;;;;;5038234;28;20207;-80
2022/07/08 08:24:22;;;;;;;3.65;1.13;;;;;;;;;;5037296;28;20242;-80
2022/07/08 08:26:49;;;;;;;3.00;1.17;;;;;;;;;;5037919;28;20569;-80
2022/07/08 08:29:16;;;;;;;6.18;1.42;;;;;;;;;;5037972;28;20246;-80
2022/07/08 08:31:44;;;;;;;5.40;1.45;;;;;;;;;;5038659;28;20677;-80
2022/07/08 08:34:11;;;;;;;2.60;1.40;;;;;;;;;;5037915;28;20242;-80
2022/07/08 08:36:38;;;;;;;5.97;1.20;;;;;;;;;;5038131;28;20206;-80
2022/07/08 08:39:05;;;;;;;2.65;0.77;;;;;;;;;;5037784;28;20329;-80
2022/07/08 08:41:34;;;;;;;1.38;1.17;;;;;;;;;;5038304;28;20206;-80
2022/07/08 08:44:01;;;;;;;1.20;0.98;;;;;;;;;;5037124;28;20234;-80
2022/07/08 08:46:30;;;;;;;2.80;1.08;;;;;;;;;;5038057;28;20572;-80
2022/07/08 08:48:58;;;;;;;2.75;1.20;;;;;;;;;;5037261;28;20238;-80
2022/07/08 08:51:25;;;;;;;1.20;0.90;;;;;;;;;;5037903;28;20215;-80
2022/07/08 08:53:54;;;;;;;1.27;0.90;;;;;;;;;;5037002;28;20230;-80
2022/07/08 08:56:22;;;;;;;2.72;1.10;;;;;;;;;;5037284;28;20211;-80
2022/07/08 08:58:49;;;;;;;1.83;1.10;;;;;;;;;;5037198;28;20237;-81
2022/07/08 09:01:17;;;;;;;3.80;1.30;;;;;;;;;;5037685;28;20207;-80
2022/07/08 09:03:45;;;;;;;3.60;1.35;;;;;;;;;;5037114;28;20240;-80
2022/07/08 09:06:13;;;;;;;1.73;1.08;;;;;;;;;;5037243;28;20229;-80
2022/07/08 09:08:40;;;;;;;2.30;1.50;;;;;;;;;;5036844;28;20241;-80
2022/07/08 09:11:08;;;;;;;3.42;1.02;;;;;;;;;;5036326;28;20203;-80
2022/07/08 09:13:35;;;;;;;1.98;0.80;;;;;;;;;;5035122;28;20255;-79
2022/07/08 09:16:02;;;;;;;4.82;1.75;;;;;;;;;;5035397;28;20203;-80
2022/07/08 09:18:30;;;;;;;3.70;1.20;;;;;;;;;;5035681;28;20238;-80
2022/07/08 09:20:58;;;;;;;1.70;0.98;;;;;;;;;;5034668;28;20211;-80
2022/07/08 09:23:27;;;;;;;4.30;1.17;;;;;;;;;;5035366;28;20230;-80
2022/07/08 09:25:55;;;;;;;2.75;1.10;;;;;;;;;;5037075;28;20264;-80
2022/07/08 09:28:29;;;;;;;5.85;1.42;;;;;;;;;;5035682;28;20246;-80
2022/07/08 09:30:56;;;;;;;2.55;1.17;;;;;;;;;;5036375;28;20302;-81
2022/07/08 09:33:24;;;;;;;2.95;1.10;;;;;;;;;;5035102;28;20230;-80
2022/07/08 09:35:52;;;;;;;3.45;0.98;;;;;;;;;;5035507;28;20207;-80
2022/07/08 09:38:19;;;;;;;2.92;1.10;;;;;;;;;;5035187;28;20242;-80
2022/07/08 09:40:56;;;;;;;1.50;0.80;;;;;;;;;;5036514;28;20574;-80
2022/07/08 09:43:23;;;;;;;4.10;1.23;;;;;;;;;;5035749;28;20313;-80
2022/07/08 09:45:50;;;;;;;0.88;0.75;;;;;;;;;;5035916;28;20207;-80
2022/07/08 09:48:17;;;;;;;5.53;1.40;;;;;;;;;;5035486;28;20329;-79
2022/07/08 09:50:45;;;;;;;1.20;0.85;;;;;;;;;;5036285;28;20210;-80
2022/07/08 09:53:13;;;;;;;4.40;1.02;;;;;;;;;;5035309;28;20272;-80
2022/07/08 09:55:41;;;;;;;2.40;1.15;;;;;;;;;;5036325;28;20683;-80
2022/07/08 09:58:12;;;;;;;3.05;1.20;;;;;;;;;;5036362;28;20691;-80
2022/07/08 10:00:39;;;;;;;3.60;1.25;;;;;;;;;;5046287;28;20202;-80
2022/07/08 10:03:06;;;;;;;4.05;1.05;;;;;;;;;;5055211;28;20260;-81
2022/07/08 10:05:34;;;;;;;8.07;1.10;;;;;;;;;;5055340;28;20210;-80
2022/07/08 10:08:01;;;;;;;3.70;0.82;;;;;;;;;;5055503;28;20225;-80
2022/07/08 10:10:28;;;;;;;3.38;1.10;;;;;;;;;;5056384;28;20202;-80
2022/07/08 10:12:58;;;;;;;3.60;1.00;;;;;;;;;;5056598;28;20210;-80
2022/07/08 10:15:27;;;;;;;3.28;1.40;;;;;;;;;;5056460;28;20615;-81
2022/07/08 10:17:56;;;;;;;2.85;1.33;;;;;;;;;;5055556;28;20242;-81
2022/07/08 10:20:25;;;;;;;3.40;1.15;;;;;;;;;;5057118;28;20209;-81
2022/07/08 10:22:55;;;;;;;4.05;1.20;;;;;;;;;;5056455;28;20220;-81
2022/07/08 10:25:22;;;;;;;2.40;1.27;;;;;;;;;;5056609;28;20230;-81
2022/07/08 10:27:49;;;;;;;4.22;1.40;;;;;;;;;;5056521;28;20218;-81
2022/07/08 10:30:17;;;;;;;3.30;0.90;;;;;;;;;;5056466;28;20238;-80
2022/07/08 10:32:48;;;;;;;3.70;1.02;;;;;;;;;;5057249;28;20202;-80
2022/07/08 10:35:15;;;;;;;4.40;1.23;;;;;;;;;;5057868;28;20234;-81
2022/07/08 10:37:50;;;;;;;2.63;0.90;;;;;;;;;;5058116;28;20265;-81
2022/07/08 10:40:32;;;;;;;3.42;0.77;;;;;;;;;;5056791;28;20237;-81
2022/07/08 10:43:06;;;;;;;3.20;0.95;;;;;;;;;;5040772;28;20216;-82
2022/07/08 10:45:57;;;;;;;3.92;0.88;;;;;;;;;;5056385;28;20205;-81
2022/07/08 10:48:28;;;;;;;3.25;1.20;;;;;;;;;;5054582;28;20233;-82
2022/07/08 10:50:55;;;;;;;3.25;1.20;;;;;;;;;;5058508;28;20206;-81
2022/07/08 10:53:22;;;;;;;3.88;1.10;;;;;;;;;;5057827;28;20236;-82
2022/07/08 10:55:49;;;;;;;3.78;1.30;;;;;;;;;;5058434;28;20622;-81
2022/07/08 10:58:16;;;;;;;2.75;1.45;;;;;;;;;;5057541;28;20237;-81
2022/07/08 11:01:03;;;;;;;2.40;1.20;;;;;;;;;;5047704;28;20690;-82
2022/07/08 11:03:45;;;;;;;2.28;1.42;;;;;;;;;;5037741;28;20229;-82
2022/07/08 11:06:32;;;;;;;2.97;1.25;;;;;;;;;;5037661;28;20210;-82
2022/07/08 11:09:02;;;;;;;1.50;0.70;;;;;;;;;;5038120;28;20277;-82
2022/07/08 11:11:30;;;;;;;5.03;1.42;;;;;;;;;;5039838;28;20210;-82
2022/07/08 11:13:57;;;;;;;1.92;0.95;;;;;;;;;;5039349;28;20230;-82
2022/07/08 11:16:24;;;;;;;3.75;0.85;;;;;;;;;;5039549;28;20217;-82
2022/07/08 11:18:52;;;;;;;3.45;1.10;;;;;;;;;;5039575;28;20741;-82
2022/07/08 11:21:20;;;;;;;4.15;1.38;;;;;;;;;;5037865;28;20573;-82
2022/07/08 11:23:47;;;;;;;1.92;1.00;;;;;;;;;;5037569;28;20234;-81
2022/07/08 11:26:20;;;;;;;2.30;1.25;;;;;;;;;;5036674;28;20233;-82
2022/07/08 11:28:47;;;;;;;4.00;1.70;;;;;;;;;;5038352;28;20405;-82
2022/07/08 11:31:20;;;;;;;2.83;1.15;;;;;;;;;;5039549;28;20206;-82
2022/07/08 11:33:47;;;;;;;1.92;0.80;;;;;;;;;;5036890;28;20230;-83
2022/07/08 11:36:17;;;;;;;2.35;1.02;;;;;;;;;;5037433;28;20219;-82
2022/07/08 11:38:45;;;;;;;3.78;1.23;;;;;;;;;;5037039;28;20305;-82
2022/07/08 11:41:12;;;;;;;2.08;0.80;;;;;;;;;;5038571;28;20214;-82
2022/07/08 11:43:39;;;;;;;4.07;1.05;;;;;;;;;;5038541;28;20234;-82
2022/07/08 11:46:15;;;;;;;1.35;0.77;;;;;;;;;;5041079;28;20203;-82
2022/07/08 11:48:42;;;;;;;1.40;0.82;;;;;;;;;;5041839;28;20257;-82
2022/07/08 11:51:09;;;;;;;2.72;1.10;;;;;;;;;;5042018;28;20207;-82
2022/07/08 11:53:38;;;;;;;2.72;0.98;;;;;;;;;;5040897;28;20226;-82
2022/07/08 11:56:05;;;;;;;3.45;1.05;;;;;;;;;;5040649;28;20674;-82
2022/07/08 11:58:32;;;;;;;2.05;0.85;;;;;;;;;;5046272;28;20265;-82
2022/07/08 12:00:59;;;;;;;2.72;1.27;;;;;;;;;;5037324;28;20209;-82
2022/07/08 12:03:27;;;;;;;2.28;0.82;;;;;;;;;;5036428;28;20234;-82
2022/07/08 12:05:55;;;;;;;3.90;0.98;;;;;;;;;;5036736;28;20574;-83
2022/07/08 12:08:22;;;;;;;3.80;1.10;;;;;;;;;;5036336;28;20229;-83
2022/07/08 12:10:51;;;;;;;3.47;1.10;;;;;;;;;;5036336;28;20273;-83
2022/07/08 12:13:18;;;;;;;2.00;0.80;;;;;;;;;;5035644;28;20234;-83
2022/07/08 12:15:45;;;;;;;2.88;0.82;;;;;;;;;;5037060;28;20206;-83
2022/07/08 12:18:12;;;;;;;2.20;1.00;;;;;;;;;;5035880;28;20239;-83
2022/07/08 12:20:41;;;;;;;2.83;1.00;;;;;;;;;;5035757;28;20222;-83
2022/07/08 12:23:09;;;;;;;1.77;1.10;;;;;;;;;;5035639;28;20230;-83
2022/07/08 12:25:48;;;;;;;1.92;0.70;;;;;;;;;;5036594;28;20195;-83
2022/07/08 12:28:21;;;;;;;1.48;0.70;;;;;;;;;;5035365;28;20238;-83
2022/07/08 12:30:48;;;;;;;4.65;1.08;;;;;;;;;;5036346;28;20644;-83
2022/07/08 12:33:25;;;;;;;3.58;1.08;;;;;;;;;;5036196;28;20234;-83
2022/07/08 12:35:52;;;;;;;3.00;1.00;;;;;;;;;;5039487;28;20194;-82
2022/07/08 12:38:23;;;;;;;2.97;1.13;;;;;;;;;;5038013;28;20254;-82
2022/07/08 12:40:50;;;;;;;2.15;1.23;;;;;;;;;;5038004;28;20203;-82
2022/07/08 12:43:19;;;;;;;3.10;0.90;;;;;;;;;;5039989;28;20238;-82
2022/07/08 12:45:46;;;;;;;2.17;0.70;;;;;;;;;;5040941;28;20218;-82
2022/07/08 12:48:13;;;;;;;3.80;1.00;;;;;;;;;;5038573;28;20234;-82
2022/07/08 12:50:41;;;;;;;3.33;1.00;;;;;;;;;;5040404;28;20210;-81
2022/07/08 12:53:08;;;;;;;2.85;0.98;;;;;;;;;;5040136;28;20264;-82
2022/07/08 12:55:35;;;;;;;3.55;1.05;;;;;;;;;;5040698;28;20213;-82
2022/07/08 12:58:02;;;;;;;3.83;1.20;;;;;;;;;;5038065;28;20596;-82
2022/07/08 13:00:30;;;;;;;4.47;1.02;;;;;;;;;;5051004;28;20222;-82
2022/07/08 13:02:57;;;;;;;1.38;0.88;;;;;;;;;;5065234;28;20283;-81
2022/07/08 13:05:24;;;;;;;4.82;1.05;;;;;;;;;;5062065;28;20198;-82
2022/07/08 13:07:51;;;;;;;3.60;1.13;;;;;;;;;;5061446;28;20229;-81
2022/07/08 13:10:18;;;;;;;2.33;1.38;;;;;;;;;;5062439;28;20245;-81
2022/07/08 13:12:46;;;;;;;5.93;1.15;;;;;;;;;;5061814;28;20206;-83
2022/07/08 13:15:13;;;;;;;6.50;1.75;;;;;;;;;;5060684;28;21070;-82
2022/07/08 13:17:42;;;;;;;3.70;1.20;;;;;;;;;;5061641;28;20244;-81
2022/07/08 13:20:09;;;;;;;1.52;0.95;;;;;;;;;;5059608;28;20234;-82
2022/07/08 13:22:36;;;;;;;2.67;1.10;;;;;;;;;;5060270;28;20205;-82
2022/07/08 13:25:03;;;;;;;1.33;0.70;;;;;;;;;;5060943;28;20237;-82
2022/07/08 13:27:30;;;;;;;2.20;0.73;;;;;;;;;;5061985;28;20222;-82
2022/07/08 13:29:57;;;;;;;5.97;1.50;;;;;;;;;;5060026;28;20344;-82
2022/07/08 13:32:25;;;;;;;3.50;1.20;;;;;;;;;;5059765;28;20666;-81
2022/07/08 13:34:53;;;;;;;3.90;1.17;;;;;;;;;;5060409;28;20256;-81
2022/07/08 13:37:20;;;;;;;1.13;0.95;;;;;;;;;;5059875;28;20214;-82
2022/07/08 13:39:47;;;;;;;3.60;1.15;;;;;;;;;;5059326;28;20238;-81
2022/07/08 13:42:15;;;;;;;3.30;0.90;;;;;;;;;;5060202;28;20205;-81
2022/07/08 13:44:42;;;;;;;2.53;1.10;;;;;;;;;;5059555;28;20238;-82
2022/07/08 13:47:09;;;;;;;1.80;1.10;;;;;;;;;;5060003;28;20206;-81
2022/07/08 13:49:36;;;;;;;2.65;1.52;;;;;;;;;;5059303;28;20248;-82
2022/07/08 13:52:04;;;;;;;3.05;1.27;;;;;;;;;;5059213;28;20213;-82
2022/07/08 13:54:31;;;;;;;2.78;1.38;;;;;;;;;;5061008;28;20238;-82
2022/07/08 13:56:59;;;;;;;4.53;1.35;;;;;;;;;;5061223;28;20302;-82
2022/07/08 13:59:26;;;;;;;2.72;1.00;;;;;;;;;;5061179;28;20605;-82
2022/07/08 14:01:53;;;;;;;0.93;0.80;;;;;;;;;;5062534;28;20206;-82
2022/07/08 14:04:20;;;;;;;2.22;1.35;;;;;;;;;;5060113;28;20229;-82
2022/07/08 14:06:47;;;;;;;3.20;1.42;;;;;;;;;;5059253;28;20206;-82
2022/07/08 14:09:16;;;;;;;2.15;1.02;;;;;;;;;;5058868;28;20240;-82
2022/07/08 14:11:43;;;;;;;3.38;1.05;;;;;;;;;;5059641;28;20214;-82
2022/07/08 14:14:10;;;;;;;3.50;1.15;;;;;;;;;;5058511;28;20281;-82
2022/07/08 14:16:37;;;;;;;2.05;1.17;;;;;;;;;;5058461;28;20205;-82
2022/07/08 14:19:05;;;;;;;3.10;1.13;;;;;;;;;;5057343;28;20245;-82
2022/07/08 14:21:32;;;;;;;0.93;0.90;;;;;;;;;;5059292;28;20202;-82
2022/07/08 14:23:59;;;;;;;3.95;1.02;;;;;;;;;;5058101;28;20233;-82
2022/07/08 14:26:27;;;;;;;4.00;1.00;;;;;;;;;;5058714;28;20300;-82
2022/07/08 14:28:54;;;;;;;1.50;0.98;;;;;;;;;;5058307;28;20234;-82
2022/07/08 14:31:22;;;;;;;1.48;0.80;;;;;;;;;;5058004;28;20210;-82
2022/07/08 14:33:49;;;;;;;3.38;1.05;;;;;;;;;;5057119;28;20229;-82
2022/07/08 14:36:16;;;;;;;4.95;1.10;;;;;;;;;;5059676;28;20564;-82
2022/07/08 14:38:43;;;;;;;4.03;1.10;;;;;;;;;;5057623;28;20250;-82
2022/07/08 14:41:10;;;;;;;3.15;0.98;;;;;;;;;;5058194;28;20313;-82
2022/07/08 14:43:38;;;;;;;1.42;0.70;;;;;;;;;;5057722;28;20271;-82
2022/07/08 14:46:06;;;;;;;4.35;1.00;;;;;;;;;;5058493;28;20210;-82